Time;durP1;ratioP1;P1;durP2;ratioP2;P2;SDS_P1;SDS_P2;PMS_P1;PMS_P2;Temp;Humidity;BMP_temperature;BMP_pressure;BME280_temperature;BME280_humidity;BME280_pressure;Samples;Min_cycle;Max_cycle;Signal;HPM_P1;HPM_P2
2022/05/10 00:00:12;;;;;;;7.40;6.70;;;11.20;99.90;;;;;;4985171;28;20510;-52
2022/05/10 00:02:38;;;;;;;7.30;6.70;;;11.10;99.90;;;;;;4987593;28;20662;-51
2022/05/10 00:05:05;;;;;;;7.80;7.00;;;11.10;99.90;;;;;;4987097;28;20435;-49
2022/05/10 00:07:34;;;;;;;6.83;6.10;;;11.00;99.90;;;;;;4991128;28;20207;-53
2022/05/10 00:10:00;;;;;;;9.37;6.50;;;11.00;99.90;;;;;;4988135;28;20538;-51
2022/05/10 00:12:27;;;;;;;10.23;7.07;;;11.00;99.90;;;;;;4992047;28;20462;-51
2022/05/10 00:14:52;;;;;;;7.50;6.80;;;10.90;99.90;;;;;;4992171;28;20423;-52
2022/05/10 00:17:39;;;;;;;7.77;6.97;;;10.90;99.90;;;;;;4990954;28;20494;-51
2022/05/10 00:20:08;;;;;;;11.00;7.50;;;10.90;99.90;;;;;;4991959;28;20219;-48
2022/05/10 00:22:34;;;;;;;8.33;6.83;;;10.80;99.90;;;;;;4986876;28;20427;-49
2022/05/10 00:25:00;;;;;;;8.57;7.77;;;10.80;99.90;;;;;;4986263;28;20432;-53
2022/05/10 00:27:25;;;;;;;9.17;6.90;;;10.80;99.90;;;;;;4985414;28;20646;-50
2022/05/10 00:29:51;;;;;;;7.50;6.80;;;10.70;99.90;;;;;;4986582;28;20471;-54
2022/05/10 00:32:16;;;;;;;8.33;7.53;;;10.70;99.90;;;;;;4975283;28;20209;-55
2022/05/10 00:34:43;;;;;;;7.50;6.80;;;10.60;99.90;;;;;;4990614;28;21015;-53
2022/05/10 00:37:11;;;;;;;8.60;7.37;;;10.60;99.90;;;;;;4990181;28;20176;-55
2022/05/10 00:39:37;;;;;;;7.67;6.87;;;10.50;99.90;;;;;;4989315;28;20478;-51
2022/05/10 00:42:12;;;;;;;7.83;7.03;;;10.50;99.90;;;;;;4990074;28;20467;-51
2022/05/10 00:44:49;;;;;;;7.97;7.17;;;10.40;99.90;;;;;;4981740;28;20304;-50
2022/05/10 00:47:38;;;;;;;7.77;6.80;;;10.40;99.90;;;;;;4986299;28;20453;-49
2022/05/10 00:50:13;;;;;;;7.60;6.73;;;10.50;99.90;;;;;;4989253;28;20994;-47
2022/05/10 00:53:11;;;;;;;11.03;6.90;;;10.40;99.90;;;;;;4989316;28;20483;-50
2022/05/10 00:55:46;;;;;;;7.57;6.87;;;10.40;99.90;;;;;;4987786;28;20479;-51
2022/05/10 00:58:49;;;;;;;8.40;6.60;;;10.50;99.90;;;;;;4981930;28;20947;-54
2022/05/10 01:01:22;;;;;;;7.93;7.13;;;10.50;99.90;;;;;;4991363;28;21157;-50
2022/05/10 01:03:55;;;;;;;7.57;6.97;;;10.40;99.90;;;;;;4991144;28;20446;-53
2022/05/10 01:06:28;;;;;;;7.77;7.07;;;10.40;99.90;;;;;;4991152;28;21106;-50
2022/05/10 01:09:16;;;;;;;8.90;8.10;;;10.40;99.90;;;;;;4987801;28;20594;-48
2022/05/10 01:11:51;;;;;;;8.50;7.67;;;10.30;99.90;;;;;;4989988;28;20463;-52
2022/05/10 01:14:31;;;;;;;8.17;7.37;;;10.30;99.90;;;;;;4984109;28;20439;-49
2022/05/10 01:16:56;;;;;;;8.60;7.80;;;10.30;99.90;;;;;;4972482;28;20412;-51
2022/05/10 01:19:22;;;;;;;10.17;7.33;;;10.30;99.90;;;;;;4986654;28;20443;-53
2022/05/10 01:22:16;;;;;;;8.10;7.23;;;10.30;99.90;;;;;;4989110;28;20320;-55
2022/05/10 01:24:56;;;;;;;6.97;6.37;;;10.30;99.90;;;;;;4989064;28;20462;-51
2022/05/10 01:27:40;;;;;;;7.77;7.00;;;10.30;99.90;;;;;;4975030;28;21428;-54
2022/05/10 01:30:14;;;;;;;7.93;7.20;;;10.20;99.90;;;;;;4990825;28;20435;-53
2022/05/10 01:36:02;;;;;;;8.40;6.90;;;10.20;99.90;;;;;;4990211;28;21225;-51
2022/05/10 01:39:05;;;;;;;8.80;7.43;;;10.20;99.90;;;;;;4990094;28;21159;-50
2022/05/10 01:41:53;;;;;;;8.83;7.53;;;10.10;99.90;;;;;;4990701;28;20446;-51
2022/05/10 01:44:28;;;;;;;9.10;7.63;;;10.10;99.90;;;;;;4986188;28;20444;-50
2022/05/10 01:47:08;;;;;;;8.87;7.20;;;10.10;99.90;;;;;;4991464;28;20418;-50
2022/05/10 01:50:02;;;;;;;7.13;6.53;;;10.10;99.90;;;;;;4988675;28;20447;-52
2022/05/10 01:52:55;;;;;;;8.13;7.30;;;10.10;99.90;;;;;;4990874;28;20447;-49
2022/05/10 01:55:40;;;;;;;8.63;7.73;;;10.00;99.90;;;;;;4991294;28;20475;-50
2022/05/10 01:58:16;;;;;;;8.00;7.27;;;10.00;99.90;;;;;;4989239;28;20505;-49
2022/05/10 02:00:49;;;;;;;7.73;7.03;;;9.90;99.90;;;;;;4991210;28;20407;-53
2022/05/10 02:03:30;;;;;;;8.10;7.30;;;9.90;99.90;;;;;;4990489;28;20516;-54
2022/05/10 02:06:08;;;;;;;8.33;7.20;;;9.90;99.90;;;;;;4989521;28;20513;-51
2022/05/10 02:08:37;;;;;;;8.90;7.50;;;9.90;99.90;;;;;;4988406;28;21258;-51
2022/05/10 02:11:10;;;;;;;8.90;8.00;;;9.90;99.90;;;;;;4987181;28;20458;-55
2022/05/10 02:13:55;;;;;;;8.93;8.03;;;9.90;99.90;;;;;;4988952;28;20432;-54
2022/05/10 02:16:35;;;;;;;8.57;7.60;;;9.90;99.90;;;;;;4985285;28;20439;-52
2022/05/10 02:19:48;;;;;;;7.63;6.93;;;9.80;99.90;;;;;;4988117;28;20431;-53
2022/05/10 02:22:28;;;;;;;8.10;7.30;;;9.80;99.90;;;;;;5002314;28;20533;-52
2022/05/10 02:24:58;;;;;;;8.70;7.90;;;9.80;99.90;;;;;;4986585;28;20886;-46
2022/05/10 02:27:35;;;;;;;8.40;7.60;;;9.80;99.90;;;;;;4985104;28;20475;-53
2022/05/10 02:30:11;;;;;;;11.27;7.83;;;9.70;99.90;;;;;;4998733;28;20403;-54
2022/05/10 02:35:25;;;;;;;8.67;7.87;;;9.70;99.90;;;;;;4979236;28;20894;-51
2022/05/10 02:37:50;;;;;;;8.60;7.60;;;9.70;99.90;;;;;;4987280;28;20427;-51
2022/05/10 02:40:16;;;;;;;9.60;7.30;;;9.70;99.90;;;;;;4979437;28;20180;-49
2022/05/10 02:42:45;;;;;;;8.53;7.73;;;9.70;99.90;;;;;;4983644;28;20188;-51
2022/05/10 02:45:12;;;;;;;9.40;7.97;;;9.70;99.90;;;;;;4980371;28;20384;-53
2022/05/10 02:47:42;;;;;;;8.47;7.60;;;9.70;99.90;;;;;;4978104;28;20428;-54
2022/05/10 02:50:23;;;;;;;10.20;8.57;;;9.70;99.90;;;;;;4990049;28;20415;-54
2022/05/10 02:52:49;;;;;;;9.20;8.00;;;9.70;99.90;;;;;;4990151;28;20575;-48
2022/05/10 02:55:18;;;;;;;10.10;8.40;;;9.70;99.90;;;;;;4973843;28;20484;-50
2022/05/10 02:57:48;;;;;;;8.70;7.90;;;9.80;99.90;;;;;;4971557;28;20420;-52
2022/05/10 03:00:15;;;;;;;9.00;8.10;;;9.80;99.90;;;;;;4990096;28;20415;-53
2022/05/10 03:02:45;;;;;;;8.20;7.40;;;9.80;99.90;;;;;;4988898;28;20529;-50
2022/05/10 03:05:13;;;;;;;9.33;8.40;;;9.80;99.90;;;;;;4989987;28;21035;-53
2022/05/10 03:07:39;;;;;;;8.93;8.10;;;9.80;99.90;;;;;;4980342;28;20494;-54
2022/05/10 03:10:08;;;;;;;9.50;7.90;;;9.80;99.90;;;;;;4977517;28;20811;-51
2022/05/10 03:12:34;;;;;;;8.57;7.77;;;9.80;99.90;;;;;;4976296;28;20307;-51
2022/05/10 03:15:00;;;;;;;9.80;8.80;;;9.70;99.90;;;;;;4974897;28;20423;-54
2022/05/10 03:17:26;;;;;;;8.17;7.37;;;9.70;99.90;;;;;;4989035;28;20426;-53
2022/05/10 03:19:52;;;;;;;8.70;7.90;;;9.70;99.90;;;;;;4981403;28;20189;-54
2022/05/10 03:22:18;;;;;;;9.80;8.17;;;9.70;99.90;;;;;;4976673;28;20481;-50
2022/05/10 03:24:43;;;;;;;8.90;8.10;;;9.70;99.90;;;;;;4988604;28;20214;-50
2022/05/10 03:27:11;;;;;;;10.50;7.50;;;9.60;99.90;;;;;;4989381;28;20188;-51
2022/05/10 03:29:39;;;;;;;11.20;8.10;;;9.60;99.90;;;;;;4988861;28;20235;-54
2022/05/10 03:32:05;;;;;;;9.03;7.90;;;9.60;99.90;;;;;;4987711;28;20509;-51
2022/05/10 03:37:15;;;;;;;9.43;8.53;;;9.50;99.90;;;;;;4991441;28;20554;-54
2022/05/10 03:39:41;;;;;;;10.30;7.30;;;9.50;99.90;;;;;;4979033;28;20440;-57
2022/05/10 03:42:07;;;;;;;10.30;9.20;;;9.50;99.90;;;;;;4986296;28;20176;-50
2022/05/10 03:44:34;;;;;;;8.93;8.03;;;9.50;99.90;;;;;;4986495;28;20192;-50
2022/05/10 03:46:59;;;;;;;9.60;8.60;;;9.50;99.90;;;;;;4984892;28;20227;-54
2022/05/10 03:49:25;;;;;;;9.90;8.20;;;9.50;99.90;;;;;;4976495;28;20527;-54
2022/05/10 03:51:50;;;;;;;11.40;8.70;;;9.50;99.90;;;;;;4980414;28;20204;-52
2022/05/10 03:54:16;;;;;;;8.97;8.10;;;9.50;99.90;;;;;;4988840;28;20207;-54
2022/05/10 03:56:41;;;;;;;9.73;8.77;;;9.50;99.90;;;;;;4992943;28;20239;-52
2022/05/10 03:59:07;;;;;;;8.53;7.70;;;9.60;99.90;;;;;;4991217;28;20603;-50
2022/05/10 04:01:33;;;;;;;11.97;8.00;;;9.60;99.90;;;;;;4989828;28;20588;-53
2022/05/10 04:04:00;;;;;;;8.57;7.73;;;9.70;99.90;;;;;;4979603;28;20215;-52
2022/05/10 04:06:25;;;;;;;8.77;7.97;;;9.80;99.90;;;;;;4980282;28;20256;-51
2022/05/10 04:08:51;;;;;;;9.83;8.00;;;9.90;99.90;;;;;;4990354;28;20522;-52
2022/05/10 04:11:16;;;;;;;9.23;8.43;;;10.00;99.90;;;;;;4990883;28;20218;-54
2022/05/10 04:13:43;;;;;;;9.73;8.33;;;10.10;99.90;;;;;;4992582;28;20180;-51
2022/05/10 04:16:09;;;;;;;9.53;8.63;;;10.10;99.90;;;;;;4990424;28;20189;-50
2022/05/10 04:18:34;;;;;;;10.53;8.83;;;10.20;99.90;;;;;;5001276;28;20446;-50
2022/05/10 04:21:00;;;;;;;9.03;7.97;;;10.30;99.90;;;;;;4991683;28;20187;-50
2022/05/10 04:23:26;;;;;;;10.20;8.73;;;10.30;99.90;;;;;;4988436;28;20204;-55
2022/05/10 04:25:51;;;;;;;11.37;8.33;;;10.40;99.90;;;;;;4990015;28;20681;-54
2022/05/10 04:28:18;;;;;;;8.93;8.07;;;10.40;99.90;;;;;;4982359;28;20189;-53
2022/05/10 04:30:44;;;;;;;11.90;8.00;;;10.40;99.90;;;;;;4981325;28;20424;-52
2022/05/10 04:33:10;;;;;;;9.80;8.80;;;10.40;99.90;;;;;;4973573;28;20527;-50
2022/05/10 04:35:35;;;;;;;9.60;8.70;;;10.40;99.90;;;;;;4988827;28;20435;-51
2022/05/10 04:38:03;;;;;;;11.20;8.77;;;10.40;99.90;;;;;;4989164;28;20721;-54
2022/05/10 04:43:14;;;;;;;9.90;9.00;;;10.60;99.90;;;;;;4987945;28;20530;-54
2022/05/10 04:45:40;;;;;;;10.00;9.00;;;10.70;99.90;;;;;;4982847;28;20941;-58
2022/05/10 04:48:06;;;;;;;9.20;8.30;;;10.70;99.90;;;;;;4985424;28;20530;-51
2022/05/10 04:50:32;;;;;;;9.00;8.17;;;10.80;99.90;;;;;;4991137;28;20446;-54
2022/05/10 04:52:57;;;;;;;9.30;8.27;;;10.80;99.90;;;;;;4987894;28;20844;-53
2022/05/10 04:55:23;;;;;;;9.60;8.37;;;10.90;99.90;;;;;;4972769;28;20467;-53
2022/05/10 04:57:49;;;;;;;10.53;9.43;;;11.00;99.90;;;;;;4990385;28;20551;-56
2022/05/10 05:00:15;;;;;;;8.77;7.97;;;11.10;99.90;;;;;;4990807;28;20192;-49
2022/05/10 05:02:42;;;;;;;11.17;7.93;;;11.20;99.90;;;;;;4978661;28;20440;-55
2022/05/10 05:05:10;;;;;;;10.00;8.10;;;11.20;99.90;;;;;;4972962;28;20810;-51
2022/05/10 05:07:36;;;;;;;10.77;9.27;;;11.30;99.90;;;;;;4974430;28;21128;-50
2022/05/10 05:10:03;;;;;;;9.53;8.43;;;11.40;99.90;;;;;;4978569;28;20423;-52
2022/05/10 05:12:32;;;;;;;10.17;9.17;;;11.50;99.90;;;;;;4991964;28;21293;-53
2022/05/10 05:14:58;;;;;;;10.50;8.23;;;11.50;99.90;;;;;;4991119;28;20496;-52
2022/05/10 05:17:24;;;;;;;9.80;8.47;;;11.60;99.90;;;;;;4992156;28;20777;-52
2022/05/10 05:19:50;;;;;;;10.17;9.07;;;11.60;99.90;;;;;;4990817;28;21044;-53
2022/05/10 05:22:15;;;;;;;10.67;8.10;;;11.70;99.90;;;;;;4990696;28;20300;-50
2022/05/10 05:24:41;;;;;;;12.93;8.53;;;11.80;99.90;;;;;;4991054;28;20188;-53
2022/05/10 05:27:06;;;;;;;9.27;8.40;;;12.00;99.90;;;;;;4991518;28;20213;-53
2022/05/10 05:29:32;;;;;;;9.20;8.40;;;12.10;99.90;;;;;;4990416;28;20184;-55
2022/05/10 05:32:01;;;;;;;10.07;8.60;;;12.30;99.90;;;;;;4992613;28;20319;-50
2022/05/10 05:34:27;;;;;;;11.50;8.20;;;12.50;99.90;;;;;;4986731;28;20176;-51
2022/05/10 05:39:36;;;;;;;13.30;8.63;;;12.90;99.90;;;;;;4986895;28;20251;-53
2022/05/10 05:42:02;;;;;;;8.50;7.80;;;13.30;99.90;;;;;;4986312;28;20427;-53
2022/05/10 05:44:27;;;;;;;11.23;8.50;;;13.50;99.90;;;;;;4981875;28;20188;-53
2022/05/10 05:46:53;;;;;;;8.70;7.90;;;13.80;99.90;;;;;;4975481;28;20189;-54
2022/05/10 05:49:18;;;;;;;8.83;7.70;;;14.00;99.90;;;;;;4991485;28;20195;-53
2022/05/10 05:51:44;;;;;;;8.33;7.63;;;14.40;99.90;;;;;;4990108;28;21575;-51
2022/05/10 05:54:10;;;;;;;7.60;7.00;;;14.60;99.90;;;;;;4991503;28;20189;-50
2022/05/10 05:56:36;;;;;;;10.57;7.87;;;14.70;99.90;;;;;;4989180;28;20759;-52
2022/05/10 05:59:01;;;;;;;8.70;7.90;;;14.80;99.90;;;;;;4971665;28;20420;-54
2022/05/10 06:01:27;;;;;;;9.13;8.20;;;15.00;99.90;;;;;;4986858;28;20752;-55
2022/05/10 06:03:55;;;;;;;8.27;7.57;;;15.10;99.90;;;;;;4975679;28;20180;-51
2022/05/10 06:06:22;;;;;;;8.90;8.10;;;15.00;99.90;;;;;;4989993;28;20212;-51
2022/05/10 06:08:48;;;;;;;8.50;7.70;;;15.10;99.90;;;;;;4990776;28;20427;-58
2022/05/10 06:11:14;;;;;;;9.93;8.00;;;15.00;99.90;;;;;;4989772;28;20184;-50
2022/05/10 06:13:39;;;;;;;8.83;8.13;;;15.00;99.90;;;;;;4990835;28;20419;-52
2022/05/10 06:16:06;;;;;;;9.20;8.47;;;15.10;99.90;;;;;;4982611;28;20188;-52
2022/05/10 06:18:32;;;;;;;9.30;8.50;;;15.30;99.90;;;;;;4987573;28;20184;-54
2022/05/10 06:20:57;;;;;;;9.57;7.90;;;15.40;99.90;;;;;;4989611;28;20419;-56
2022/05/10 06:23:23;;;;;;;8.33;7.63;;;15.50;99.90;;;;;;4978058;28;20941;-54
2022/05/10 06:25:48;;;;;;;8.60;7.90;;;15.60;99.90;;;;;;4989273;28;20304;-55
2022/05/10 06:28:14;;;;;;;8.40;7.60;;;15.60;99.70;;;;;;4983702;28;20514;-52
2022/05/10 06:30:39;;;;;;;9.10;8.30;;;15.60;99.70;;;;;;4983838;28;20182;-54
2022/05/10 06:33:05;;;;;;;8.67;7.97;;;15.70;99.30;;;;;;4990229;28;20243;-53
2022/05/10 06:35:31;;;;;;;9.90;8.40;;;15.70;99.00;;;;;;4986881;28;20686;-55
2022/05/10 06:40:42;;;;;;;8.73;7.83;;;15.80;99.00;;;;;;4973896;28;20184;-54
2022/05/10 06:43:07;;;;;;;8.37;7.67;;;16.00;98.70;;;;;;4990066;28;20451;-52
2022/05/10 06:45:33;;;;;;;9.30;7.83;;;16.10;98.60;;;;;;4987295;28;20532;-56
2022/05/10 06:47:58;;;;;;;8.97;8.07;;;16.20;97.80;;;;;;4982161;28;20648;-53
2022/05/10 06:50:25;;;;;;;8.37;7.67;;;16.50;97.60;;;;;;4975784;28;20200;-54
2022/05/10 06:52:54;;;;;;;8.50;7.70;;;16.50;97.40;;;;;;4989801;28;20770;-57
2022/05/10 06:55:20;;;;;;;8.67;7.97;;;16.50;97.10;;;;;;4976643;28;20556;-58
2022/05/10 06:57:46;;;;;;;8.90;8.10;;;16.70;97.10;;;;;;4970576;28;20462;-54
2022/05/10 07:00:13;;;;;;;8.10;7.40;;;16.80;97.00;;;;;;4978850;28;21014;-53
2022/05/10 07:02:39;;;;;;;8.07;7.47;;;17.00;96.80;;;;;;4974305;28;20445;-52
2022/05/10 07:05:06;;;;;;;9.23;7.40;;;17.10;96.00;;;;;;4969947;28;20422;-55
2022/05/10 07:07:31;;;;;;;8.90;8.00;;;17.30;95.90;;;;;;4980685;28;20187;-56
2022/05/10 07:09:57;;;;;;;8.30;7.60;;;17.50;94.80;;;;;;4989769;28;20928;-54
2022/05/10 07:12:22;;;;;;;9.40;7.87;;;17.70;93.40;;;;;;4990473;28;20289;-54
2022/05/10 07:14:48;;;;;;;8.60;7.80;;;17.90;93.40;;;;;;4991565;28;20184;-56
2022/05/10 07:17:14;;;;;;;8.67;7.97;;;17.90;92.30;;;;;;4990845;28;20183;-50
2022/05/10 07:19:40;;;;;;;9.70;8.30;;;18.00;92.10;;;;;;4991353;28;20415;-54
2022/05/10 07:22:05;;;;;;;8.07;7.47;;;18.10;91.70;;;;;;4989663;28;20573;-52
2022/05/10 07:24:31;;;;;;;8.97;8.00;;;18.20;90.80;;;;;;4990079;28;20199;-58
2022/05/10 07:26:57;;;;;;;9.40;8.50;;;18.30;90.70;;;;;;4990253;28;20188;-52
2022/05/10 07:29:23;;;;;;;8.27;7.50;;;18.40;91.10;;;;;;4990257;28;20198;-55
2022/05/10 07:31:49;;;;;;;8.13;7.53;;;18.60;90.90;;;;;;4983585;28;20192;-53
2022/05/10 07:34:15;;;;;;;8.67;7.83;;;18.70;90.00;;;;;;4991401;28;20188;-52
2022/05/10 07:36:41;;;;;;;8.13;7.43;;;18.70;89.50;;;;;;4980601;28;20439;-56
2022/05/10 07:39:10;;;;;;;8.43;7.63;;;18.80;89.40;;;;;;4975136;28;20448;-55
2022/05/10 07:41:37;;;;;;;8.97;8.17;;;19.10;89.70;;;;;;4980508;28;20196;-51
2022/05/10 07:44:04;;;;;;;8.50;7.80;;;19.30;88.10;;;;;;4978018;28;20462;-57
2022/05/10 07:46:30;;;;;;;9.23;8.40;;;19.50;87.20;;;;;;4991118;28;20422;-49
2022/05/10 07:48:55;;;;;;;8.00;7.40;;;19.70;86.10;;;;;;4990347;28;20449;-51
2022/05/10 07:51:21;;;;;;;8.10;7.30;;;19.90;86.40;;;;;;4991354;28;20217;-52
2022/05/10 07:53:47;;;;;;;9.10;8.40;;;20.10;84.80;;;;;;4991209;28;20627;-54
2022/05/10 07:56:13;;;;;;;7.93;7.23;;;20.20;82.30;;;;;;4990531;28;20459;-56
2022/05/10 07:58:38;;;;;;;8.40;7.77;;;20.40;81.40;;;;;;4991189;28;20181;-54
2022/05/10 08:01:04;;;;;;;8.80;8.10;;;20.60;80.60;;;;;;4990672;28;20222;-56
2022/05/10 08:03:31;;;;;;;8.07;7.47;;;20.80;79.20;;;;;;4991596;28;20247;-54
2022/05/10 08:05:59;;;;;;;9.30;8.53;;;21.00;76.00;;;;;;4989968;28;20937;-55
2022/05/10 08:08:27;;;;;;;7.77;7.27;;;21.30;75.90;;;;;;4990991;28;20392;-55
2022/05/10 08:10:53;;;;;;;9.30;8.40;;;21.50;76.80;;;;;;4988020;28;20456;-54
2022/05/10 08:13:21;;;;;;;9.10;8.40;;;21.60;73.10;;;;;;4989584;28;20989;-52
2022/05/10 08:15:48;;;;;;;9.30;8.60;;;21.70;71.20;;;;;;4989412;28;20940;-55
2022/05/10 08:18:14;;;;;;;9.10;8.47;;;22.00;69.40;;;;;;4989523;28;20433;-52
2022/05/10 08:20:41;;;;;;;8.77;8.20;;;22.00;68.90;;;;;;4989480;28;20418;-52
2022/05/10 08:23:08;;;;;;;9.57;8.87;;;22.20;68.50;;;;;;4991976;28;20521;-52
2022/05/10 08:25:34;;;;;;;9.27;8.50;;;22.40;66.70;;;;;;4992481;28;20488;-53
2022/05/10 08:28:00;;;;;;;9.23;8.53;;;22.50;66.70;;;;;;4992970;28;20395;-57
2022/05/10 08:30:25;;;;;;;9.73;9.03;;;22.60;67.40;;;;;;4992418;28;20430;-53
2022/05/10 08:32:51;;;;;;;8.27;7.67;;;22.90;65.20;;;;;;4991697;28;20215;-52
2022/05/10 08:35:17;;;;;;;8.43;7.83;;;23.10;63.40;;;;;;4992930;28;20179;-53
2022/05/10 08:37:43;;;;;;;8.40;7.87;;;23.20;63.80;;;;;;4991932;28;20782;-52
2022/05/10 08:40:23;;;;;;;9.37;8.60;;;23.40;64.30;;;;;;4986351;28;20431;-57
2022/05/10 08:42:52;;;;;;;8.43;7.93;;;23.50;62.90;;;;;;4987262;28;20180;-57
2022/05/10 08:45:21;;;;;;;8.67;7.90;;;23.80;61.90;;;;;;4983765;28;20443;-57
2022/05/10 08:47:47;;;;;;;8.47;7.77;;;24.00;60.00;;;;;;4975716;28;20424;-58
2022/05/10 08:50:18;;;;;;;9.23;8.53;;;24.30;59.60;;;;;;4973371;28;20416;-55
2022/05/10 08:52:46;;;;;;;10.20;9.37;;;24.40;58.60;;;;;;4972974;28;20471;-57
2022/05/10 08:55:15;;;;;;;8.73;8.20;;;24.70;57.50;;;;;;4977719;28;20923;-58
2022/05/10 08:57:46;;;;;;;8.50;7.90;;;24.80;57.30;;;;;;4973144;28;20501;-57
2022/05/10 09:00:24;;;;;;;8.80;8.20;;;25.40;55.50;;;;;;4985030;28;20450;-57
2022/05/10 09:02:55;;;;;;;8.33;7.73;;;25.70;55.40;;;;;;4981847;28;20429;-57
2022/05/10 09:05:23;;;;;;;8.83;8.23;;;26.10;53.60;;;;;;4992258;28;20783;-57
2022/05/10 09:07:51;;;;;;;8.27;7.60;;;26.40;53.50;;;;;;4992061;28;20553;-57
2022/05/10 09:10:28;;;;;;;8.80;8.20;;;27.00;52.90;;;;;;4990976;28;20428;-56
2022/05/10 09:13:03;;;;;;;8.53;8.03;;;27.60;50.70;;;;;;4991825;28;20725;-57
2022/05/10 09:15:34;;;;;;;9.03;8.43;;;28.40;48.20;;;;;;4992305;28;20407;-58
2022/05/10 09:18:14;;;;;;;8.20;7.60;;;29.30;45.00;;;;;;4992260;28;20490;-57
2022/05/10 09:20:52;;;;;;;8.80;8.20;;;29.90;42.00;;;;;;4992008;28;20410;-58
2022/05/10 09:23:41;;;;;;;9.30;8.47;;;30.50;38.80;;;;;;4990264;28;20472;-56
2022/05/10 09:26:10;;;;;;;9.53;8.87;;;31.20;39.00;;;;;;4990793;28;20436;-56
2022/05/10 09:28:56;;;;;;;9.47;8.77;;;31.40;36.40;;;;;;4990244;28;20447;-56
2022/05/10 09:37:32;;;;;;;9.87;9.20;;;33.00;30.30;;;;;;4972671;28;20910;-57
2022/05/10 09:39:57;;;;;;;9.77;9.10;;;32.30;30.70;;;;;;4983425;28;20420;-57
2022/05/10 09:42:31;;;;;;;9.20;8.60;;;32.50;31.20;;;;;;4990029;28;20450;-57
2022/05/10 09:45:03;;;;;;;9.73;9.10;;;32.40;31.00;;;;;;4987936;28;20177;-57
2022/05/10 09:47:30;;;;;;;9.20;8.70;;;32.70;30.20;;;;;;4988948;28;20485;-56
2022/05/10 09:50:15;;;;;;;9.30;8.70;;;32.70;30.30;;;;;;4991033;28;20502;-57
2022/05/10 09:52:41;;;;;;;9.70;9.00;;;32.40;29.70;;;;;;4991285;28;20491;-58
2022/05/10 09:55:09;;;;;;;10.47;9.87;;;32.90;30.20;;;;;;4989415;28;20961;-58
2022/05/10 09:57:40;;;;;;;8.90;8.40;;;33.30;28.10;;;;;;4989993;28;20447;-56
2022/05/10 10:00:11;;;;;;;8.70;8.10;;;33.70;28.40;;;;;;4990297;28;20507;-58
2022/05/10 10:02:38;;;;;;;10.63;9.73;;;33.70;27.60;;;;;;4991032;28;20443;-57
2022/05/10 10:05:28;;;;;;;9.17;8.50;;;33.90;26.90;;;;;;4988603;28;20466;-56
2022/05/10 10:07:56;;;;;;;9.00;8.50;;;33.20;28.70;;;;;;4990317;28;20446;-56
2022/05/10 10:10:34;;;;;;;9.27;8.60;;;34.00;28.00;;;;;;4990872;28;20411;-56
2022/05/10 10:13:20;;;;;;;9.63;9.03;;;34.10;26.40;;;;;;4990122;28;20467;-56
2022/05/10 10:15:46;;;;;;;8.90;8.33;;;34.10;26.80;;;;;;4972249;28;20432;-57
2022/05/10 10:18:32;;;;;;;8.83;8.20;;;34.00;28.00;;;;;;4973149;28;20734;-57
2022/05/10 10:20:58;;;;;;;9.07;8.30;;;34.10;27.20;;;;;;4975366;28;20847;-57
2022/05/10 10:23:31;;;;;;;9.30;8.60;;;34.30;26.00;;;;;;4969719;28;20428;-57
2022/05/10 10:26:25;;;;;;;9.87;9.10;;;35.00;25.20;;;;;;4974825;28;20191;-57
2022/05/10 10:29:17;;;;;;;9.60;9.00;;;34.80;24.30;;;;;;4990475;28;20416;-57
2022/05/10 10:31:48;;;;;;;8.90;8.40;;;34.20;25.20;;;;;;4987610;28;21114;-57
2022/05/10 10:34:22;;;;;;;8.90;8.40;;;34.60;24.40;;;;;;4984843;28;20420;-56
2022/05/10 10:36:58;;;;;;;7.97;7.57;;;35.10;23.00;;;;;;4990242;28;20427;-58
2022/05/10 10:39:29;;;;;;;8.70;8.10;;;34.70;22.40;;;;;;4988811;28;20881;-58
2022/05/10 10:42:22;;;;;;;8.80;8.30;;;34.60;22.40;;;;;;4989912;28;20566;-56
2022/05/10 10:44:55;;;;;;;9.40;8.70;;;34.70;23.50;;;;;;4987988;28;20772;-58
2022/05/10 10:47:29;;;;;;;9.40;8.73;;;35.20;23.40;;;;;;4971511;28;20432;-58
2022/05/10 10:50:21;;;;;;;9.20;8.40;;;35.60;23.40;;;;;;4989290;28;20690;-59
2022/05/10 10:52:46;;;;;;;9.80;9.10;;;36.80;21.70;;;;;;4990098;28;20459;-57
2022/05/10 10:55:13;;;;;;;8.33;7.93;;;36.80;22.10;;;;;;4989821;28;20529;-58
2022/05/10 10:58:01;;;;;;;9.00;8.60;;;36.90;21.90;;;;;;4990044;28;20273;-55
2022/05/10 11:00:33;;;;;;;8.90;8.33;;;36.90;20.80;;;;;;4987364;28;20439;-57
2022/05/10 11:03:17;;;;;;;9.17;8.67;;;36.30;21.40;;;;;;4988428;28;20817;-57
2022/05/10 11:06:13;;;;;;;9.67;9.07;;;35.80;21.90;;;;;;4975607;28;20430;-59
2022/05/10 11:09:06;;;;;;;9.67;9.07;;;35.50;21.10;;;;;;4977947;28;20507;-57
2022/05/10 11:11:47;;;;;;;9.27;8.77;;;35.60;22.20;;;;;;4990210;28;20419;-51
2022/05/10 11:14:34;;;;;;;9.57;9.00;;;36.00;21.80;;;;;;4989292;28;20995;-58
2022/05/10 11:17:32;;;;;;;9.70;9.07;;;36.00;21.40;;;;;;4990141;28;20863;-57
2022/05/10 11:20:29;;;;;;;9.40;8.77;;;35.50;21.60;;;;;;5004022;28;20434;-58
2022/05/10 11:23:10;;;;;;;9.83;9.17;;;35.60;21.70;;;;;;4988191;28;20540;-57
2022/05/10 11:26:17;;;;;;;10.37;9.60;;;35.90;21.70;;;;;;4989979;28;20414;-58
2022/05/10 11:29:02;;;;;;;9.40;8.90;;;35.20;21.70;;;;;;4993740;28;20439;-58
2022/05/10 11:32:09;;;;;;;9.27;8.57;;;34.50;21.70;;;;;;4988048;28;20781;-58
2022/05/10 11:35:01;;;;;;;8.97;8.43;;;33.90;24.10;;;;;;4990073;28;20853;-57
2022/05/10 11:37:32;;;;;;;9.00;8.43;;;34.00;22.00;;;;;;4988417;28;20424;-58
2022/05/10 11:40:15;;;;;;;8.73;8.10;;;34.20;22.80;;;;;;4988530;28;20436;-58
2022/05/10 11:43:13;;;;;;;9.07;8.50;;;34.20;23.00;;;;;;4989370;28;20505;-58
2022/05/10 11:46:03;;;;;;;8.87;8.37;;;34.30;22.60;;;;;;4975923;28;20448;-58
2022/05/10 11:48:50;;;;;;;8.47;7.87;;;34.20;22.40;;;;;;4986070;28;21146;-59
2022/05/10 11:51:43;;;;;;;8.30;7.80;;;33.90;22.10;;;;;;4989549;28;20415;-58
2022/05/10 11:54:27;;;;;;;8.13;7.70;;;33.40;23.00;;;;;;4989673;28;20474;-57
2022/05/10 11:56:54;;;;;;;8.80;8.27;;;32.70;23.90;;;;;;4989493;28;20541;-59
2022/05/10 11:59:27;;;;;;;8.73;8.13;;;32.40;23.90;;;;;;4993516;28;20507;-58
2022/05/10 12:01:55;;;;;;;7.87;7.47;;;32.40;23.50;;;;;;4986764;28;20972;-57
2022/05/10 12:04:42;;;;;;;7.77;7.27;;;31.70;23.30;;;;;;4984899;28;20427;-58
2022/05/10 12:07:20;;;;;;;8.23;7.83;;;31.50;24.50;;;;;;4993159;28;20522;-57
2022/05/10 12:09:52;;;;;;;7.93;7.53;;;32.10;23.40;;;;;;4992944;28;20492;-58
2022/05/10 12:12:33;;;;;;;7.97;7.47;;;32.90;22.80;;;;;;4989203;28;20445;-56
2022/05/10 12:21:25;;;;;;;9.30;8.80;;;31.50;23.00;;;;;;4992239;28;20450;-58
2022/05/10 12:24:25;;;;;;;8.50;8.10;;;30.60;24.20;;;;;;4992179;28;20431;-58
2022/05/10 12:26:59;;;;;;;8.13;7.63;;;30.20;25.50;;;;;;4992015;28;20420;-57
2022/05/10 12:29:52;;;;;;;8.43;8.03;;;31.00;25.90;;;;;;4988674;28;20518;-54
2022/05/10 12:32:18;;;;;;;8.93;8.23;;;32.40;24.20;;;;;;4986058;28;20571;-58
2022/05/10 12:34:58;;;;;;;8.50;8.00;;;33.20;21.90;;;;;;4990583;28;20440;-56
2022/05/10 12:37:30;;;;;;;8.40;7.90;;;32.90;21.80;;;;;;4979625;28;20220;-57
2022/05/10 12:40:08;;;;;;;7.93;7.53;;;33.70;21.60;;;;;;4986431;28;20412;-58
2022/05/10 12:43:06;;;;;;;8.03;7.40;;;34.70;20.60;;;;;;4991088;28;21063;-58
2022/05/10 12:45:55;;;;;;;8.27;7.80;;;35.50;19.70;;;;;;4986378;28;20428;-57
2022/05/10 12:48:46;;;;;;;8.20;7.80;;;35.50;19.20;;;;;;4990473;28;20817;-57
2022/05/10 12:51:21;;;;;;;8.93;8.33;;;36.00;19.10;;;;;;4988418;28;20471;-58
2022/05/10 12:53:59;;;;;;;8.17;7.43;;;35.80;20.20;;;;;;4991044;28;20422;-57
2022/05/10 12:56:36;;;;;;;8.80;8.27;;;36.50;18.60;;;;;;4989775;28;20836;-57
2022/05/10 12:59:15;;;;;;;7.90;7.50;;;36.40;18.30;;;;;;4987410;28;20426;-57
2022/05/10 13:01:41;;;;;;;8.43;7.83;;;36.00;18.50;;;;;;4989091;28;20463;-58
2022/05/10 13:04:16;;;;;;;9.30;8.60;;;35.70;18.70;;;;;;4989699;28;20439;-57
2022/05/10 13:07:03;;;;;;;9.80;8.80;;;35.10;20.10;;;;;;4988319;28;20411;-57
2022/05/10 13:09:36;;;;;;;9.63;9.03;;;34.80;21.20;;;;;;4984073;28;20428;-58
2022/05/10 13:12:07;;;;;;;9.13;8.43;;;35.00;21.60;;;;;;4989406;28;20503;-51
2022/05/10 13:14:44;;;;;;;9.00;8.30;;;35.20;20.60;;;;;;4985087;28;20471;-58
2022/05/10 13:17:18;;;;;;;10.13;9.40;;;34.50;20.30;;;;;;4991170;28;20437;-52
2022/05/10 13:19:44;;;;;;;11.83;8.10;;;34.30;21.30;;;;;;4991675;28;20418;-57
2022/05/10 13:22:14;;;;;;;8.93;8.40;;;34.70;21.50;;;;;;4990494;28;20926;-58
2022/05/10 13:24:44;;;;;;;9.10;8.60;;;35.00;21.10;;;;;;4991373;28;20444;-58
2022/05/10 13:27:26;;;;;;;9.13;8.53;;;35.20;21.40;;;;;;4991161;28;20759;-57
2022/05/10 13:29:53;;;;;;;9.30;8.63;;;35.30;20.50;;;;;;4989633;28;20439;-58
2022/05/10 13:32:49;;;;;;;9.73;9.10;;;35.10;20.90;;;;;;4988057;28;20456;-58
2022/05/10 13:35:22;;;;;;;9.70;9.10;;;34.40;21.80;;;;;;4989659;28;20428;-59
2022/05/10 13:37:58;;;;;;;9.53;9.03;;;34.40;21.50;;;;;;4987257;28;20827;-59
2022/05/10 13:40:32;;;;;;;9.60;9.10;;;34.40;21.60;;;;;;4985256;28;20790;-58
2022/05/10 13:43:12;;;;;;;10.07;9.47;;;34.70;21.20;;;;;;4989468;28;20463;-58